Time;durP1;ratioP1;P1;durP2;ratioP2;P2;SDS_P1;SDS_P2;PMS_P1;PMS_P2;Temp;Humidity;BMP_temperature;BMP_pressure;BME280_temperature;BME280_humidity;BME280_pressure;Samples;Min_cycle;Max_cycle;Signal;HPM_P1;HPM_P2
2024/01/24 00:00:59;;;;;;;;;;;17.10;52.50;;;;;;7395402;19;1669;-62
2024/01/24 00:03:25;;;;;;;;;;;17.10;52.50;;;;;;7398129;19;1873;-62
2024/01/24 00:05:50;;;;;;;;;;;17.00;52.50;;;;;;7395728;19;1542;-63
2024/01/24 00:08:16;;;;;;;;;;;17.00;52.50;;;;;;7393892;19;906;-63
2024/01/24 00:10:41;;;;;;;;;;;17.00;52.50;;;;;;7398783;19;1752;-63
2024/01/24 00:13:07;;;;;;;;;;;17.00;52.50;;;;;;7393413;19;847;-63
2024/01/24 00:15:32;;;;;;;;;;;17.00;52.50;;;;;;7397479;19;1437;-63
2024/01/24 00:17:58;;;;;;;;;;;16.90;52.50;;;;;;7395163;19;866;-63
2024/01/24 00:20:23;;;;;;;;;;;16.90;52.80;;;;;;7394555;19;4676;-63
2024/01/24 00:22:49;;;;;;;;;;;16.90;52.80;;;;;;7394765;19;1619;-63
2024/01/24 00:25:14;;;;;;;;;;;16.90;52.80;;;;;;7395077;19;2226;-62
2024/01/24 00:27:40;;;;;;;;;;;16.90;52.80;;;;;;7394545;19;784;-63
2024/01/24 00:30:05;;;;;;;;;;;16.90;52.90;;;;;;7393248;19;907;-63
2024/01/24 00:32:31;;;;;;;;;;;16.90;53.00;;;;;;7397594;19;1704;-62
2024/01/24 00:34:56;;;;;;;;;;;16.80;53.00;;;;;;7396250;19;1414;-62
2024/01/24 00:37:22;;;;;;;;;;;16.80;53.20;;;;;;7392372;19;1121;-63
2024/01/24 00:39:47;;;;;;;;;;;16.80;53.30;;;;;;7396167;19;1774;-62
2024/01/24 00:42:13;;;;;;;;;;;16.80;53.30;;;;;;7393718;19;1204;-62
2024/01/24 00:44:42;;;;;;;;;;;16.70;53.30;;;;;;7391905;19;1850;-63
2024/01/24 00:47:07;;;;;;;;;;;16.70;53.40;;;;;;7397058;19;1595;-63
2024/01/24 00:49:32;;;;;;;;;;;16.70;53.30;;;;;;7392414;19;1498;-63
2024/01/24 00:51:58;;;;;;;;;;;16.70;53.30;;;;;;7394536;19;776;-62
2024/01/24 00:54:24;;;;;;;;;;;16.70;53.30;;;;;;7396425;19;1516;-63
2024/01/24 00:56:49;;;;;;;;;;;16.70;53.40;;;;;;7393776;19;866;-63
2024/01/24 00:59:15;;;;;;;;;;;16.70;53.50;;;;;;7392950;19;847;-63
2024/01/24 01:01:40;;;;;;;;;;;16.70;53.60;;;;;;7396071;19;1850;-62
2024/01/24 01:04:06;;;;;;;;;;;16.70;53.50;;;;;;7396069;19;1846;-62
2024/01/24 01:06:31;;;;;;;;;;;16.70;53.50;;;;;;7392538;19;1073;-62
2024/01/24 01:08:59;;;;;;;;;;;16.70;53.60;;;;;;7393088;19;1515;-62
2024/01/24 01:11:24;;;;;;;;;;;16.60;53.70;;;;;;7393297;19;2691;-62
2024/01/24 01:13:50;;;;;;;;;;;16.60;53.80;;;;;;7395324;19;1551;-62
2024/01/24 01:16:15;;;;;;;;;;;16.60;53.80;;;;;;7392322;19;1018;-63
2024/01/24 01:18:41;;;;;;;;;;;16.60;53.80;;;;;;7393248;19;1673;-62
2024/01/24 01:21:06;;;;;;;;;;;16.60;53.80;;;;;;7395825;19;1738;-62
2024/01/24 01:23:32;;;;;;;;;;;16.60;54.20;;;;;;7393318;19;1842;-63
2024/01/24 01:25:57;;;;;;;;;;;16.60;53.90;;;;;;7397670;19;1556;-62
2024/01/24 01:28:22;;;;;;;;;;;16.60;53.80;;;;;;7391742;19;1397;-62
2024/01/24 01:30:48;;;;;;;;;;;16.60;54.00;;;;;;7392384;19;800;-62
2024/01/24 01:33:13;;;;;;;;;;;16.60;54.00;;;;;;7391905;19;1325;-62
2024/01/24 01:35:39;;;;;;;;;;;16.60;54.00;;;;;;7392938;19;860;-63
2024/01/24 01:38:04;;;;;;;;;;;16.50;54.00;;;;;;7402153;19;1739;-62
2024/01/24 01:40:29;;;;;;;;;;;16.50;54.00;;;;;;7404098;19;1565;-62
2024/01/24 01:42:55;;;;;;;;;;;16.60;54.20;;;;;;7397491;19;1154;-63
2024/01/24 01:45:20;;;;;;;;;;;16.60;54.10;;;;;;7400294;19;1843;-62
2024/01/24 01:47:46;;;;;;;;;;;16.50;54.30;;;;;;7400728;19;844;-63
2024/01/24 01:50:14;;;;;;;;;;;16.50;54.30;;;;;;7398302;19;1042;-62
2024/01/24 01:52:39;;;;;;;;;;;16.50;54.30;;;;;;7402045;19;1673;-63
2024/01/24 01:55:04;;;;;;;;;;;16.50;54.40;;;;;;7400256;19;1645;-63
2024/01/24 01:57:30;;;;;;;;;;;16.40;54.40;;;;;;7403505;19;1505;-62
2024/01/24 01:59:56;;;;;;;;;;;16.40;54.50;;;;;;7400096;19;1798;-62
2024/01/24 02:02:22;;;;;;;;;;;16.40;54.60;;;;;;7401413;19;1466;-62
2024/01/24 02:04:47;;;;;;;;;;;16.40;54.70;;;;;;7396347;19;1842;-62
2024/01/24 02:07:13;;;;;;;;;;;16.40;54.80;;;;;;7399676;19;1069;-62
2024/01/24 02:09:39;;;;;;;;;;;16.40;54.70;;;;;;7399603;19;1610;-62
2024/01/24 02:12:04;;;;;;;;;;;16.40;54.90;;;;;;7398669;19;1675;-62
2024/01/24 02:14:30;;;;;;;;;;;16.40;54.90;;;;;;7400194;19;1551;-62
2024/01/24 02:16:55;;;;;;;;;;;16.40;54.90;;;;;;7400818;19;1540;-63
2024/01/24 02:19:21;;;;;;;;;;;16.50;54.80;;;;;;7401055;19;1546;-62
2024/01/24 02:21:46;;;;;;;;;;;16.70;54.20;;;;;;7397726;19;755;-62
2024/01/24 02:24:12;;;;;;;;;;;16.90;53.80;;;;;;7398754;19;1826;-62
2024/01/24 02:26:38;;;;;;;;;;;17.20;53.30;;;;;;7396930;19;834;-62
2024/01/24 02:29:04;;;;;;;;;;;17.50;52.50;;;;;;7400233;19;1520;-62
2024/01/24 02:31:29;;;;;;;;;;;18.00;51.70;;;;;;7402023;19;1665;-63
2024/01/24 02:33:55;;;;;;;;;;;18.30;50.90;;;;;;7397158;19;1379;-62
2024/01/24 02:36:20;;;;;;;;;;;18.60;50.30;;;;;;7402571;19;1657;-62
2024/01/24 02:38:45;;;;;;;;;;;18.90;49.60;;;;;;7399181;19;1521;-62
2024/01/24 02:41:11;;;;;;;;;;;19.30;49.00;;;;;;7403324;19;1618;-62
2024/01/24 02:43:36;;;;;;;;;;;19.40;48.70;;;;;;7396575;19;1846;-61
2024/01/24 02:46:02;;;;;;;;;;;19.50;48.50;;;;;;7402610;19;1655;-62
2024/01/24 02:48:27;;;;;;;;;;;19.50;48.30;;;;;;7394128;19;915;-62
2024/01/24 02:50:53;;;;;;;;;;;19.50;48.30;;;;;;7400290;19;1553;-61
2024/01/24 02:53:18;;;;;;;;;;;19.40;48.50;;;;;;7395489;19;863;-62
2024/01/24 02:55:44;;;;;;;;;;;19.30;48.70;;;;;;7401932;19;1462;-62
2024/01/24 02:58:09;;;;;;;;;;;19.20;48.90;;;;;;7397780;19;812;-62
2024/01/24 03:00:35;;;;;;;;;;;19.20;49.00;;;;;;7398946;19;1528;-62
2024/01/24 03:03:00;;;;;;;;;;;19.10;49.20;;;;;;7396063;19;2202;-62
2024/01/24 03:05:26;;;;;;;;;;;19.00;49.30;;;;;;7399536;19;1848;-62
2024/01/24 03:07:51;;;;;;;;;;;18.90;49.40;;;;;;7396244;19;906;-62
2024/01/24 03:10:17;;;;;;;;;;;18.90;49.70;;;;;;7400226;19;1484;-62
2024/01/24 03:12:42;;;;;;;;;;;18.80;50.10;;;;;;7397586;19;1515;-62
2024/01/24 03:15:08;;;;;;;;;;;18.80;50.20;;;;;;7397369;19;799;-62
2024/01/24 03:17:33;;;;;;;;;;;18.80;50.30;;;;;;7399605;19;1543;-62
2024/01/24 03:19:59;;;;;;;;;;;18.70;50.30;;;;;;7401112;19;1451;-62
2024/01/24 03:22:25;;;;;;;;;;;18.70;50.50;;;;;;7398052;19;1443;-62
2024/01/24 03:24:51;;;;;;;;;;;18.70;50.50;;;;;;7397863;19;1856;-62
2024/01/24 03:27:16;;;;;;;;;;;18.60;50.60;;;;;;7396887;19;875;-62
2024/01/24 03:29:42;;;;;;;;;;;18.60;50.70;;;;;;7396937;19;800;-62
2024/01/24 03:32:08;;;;;;;;;;;18.60;50.80;;;;;;7399738;19;1241;-62
2024/01/24 03:34:33;;;;;;;;;;;18.50;50.90;;;;;;7396368;19;1057;-62
2024/01/24 03:36:58;;;;;;;;;;;18.60;51.10;;;;;;7395948;19;1164;-62
2024/01/24 03:39:24;;;;;;;;;;;18.50;50.90;;;;;;7399074;19;1518;-62
2024/01/24 03:41:49;;;;;;;;;;;18.50;51.20;;;;;;7400461;19;1614;-63
2024/01/24 03:44:15;;;;;;;;;;;18.40;51.30;;;;;;7395101;19;1846;-62
2024/01/24 03:46:40;;;;;;;;;;;18.40;51.30;;;;;;7394947;19;1061;-62
2024/01/24 03:49:06;;;;;;;;;;;18.50;51.30;;;;;;7396160;19;843;-62
2024/01/24 03:51:31;;;;;;;;;;;18.40;51.40;;;;;;7394614;19;848;-62
2024/01/24 03:53:56;;;;;;;;;;;18.40;51.60;;;;;;7397756;19;1620;-62
2024/01/24 03:56:22;;;;;;;;;;;18.30;51.70;;;;;;7398677;19;1857;-63
2024/01/24 03:58:47;;;;;;;;;;;18.40;51.50;;;;;;7392813;19;1061;-62
2024/01/24 04:01:13;;;;;;;;;;;18.40;51.50;;;;;;7397581;19;1551;-62
2024/01/24 04:03:38;;;;;;;;;;;18.30;51.80;;;;;;7397358;19;1850;-62
2024/01/24 04:06:04;;;;;;;;;;;18.30;51.90;;;;;;7393833;19;795;-62
2024/01/24 04:08:29;;;;;;;;;;;18.30;51.80;;;;;;7396128;19;1600;-62
2024/01/24 04:10:54;;;;;;;;;;;18.30;51.80;;;;;;7396443;19;1640;-62
2024/01/24 04:13:20;;;;;;;;;;;18.30;51.90;;;;;;7399291;19;1808;-63
2024/01/24 04:15:45;;;;;;;;;;;18.30;51.80;;;;;;7395539;19;1513;-62
2024/01/24 04:18:11;;;;;;;;;;;18.40;51.80;;;;;;7398039;19;1621;-62
2024/01/24 04:20:36;;;;;;;;;;;18.50;51.60;;;;;;7396182;19;1479;-62
2024/01/24 04:23:02;;;;;;;;;;;18.60;51.60;;;;;;7395707;19;1484;-63
2024/01/24 04:25:27;;;;;;;;;;;18.70;51.40;;;;;;7396101;19;1964;-62
2024/01/24 04:27:52;;;;;;;;;;;18.70;51.20;;;;;;7392854;19;982;-62
2024/01/24 04:30:18;;;;;;;;;;;18.60;51.50;;;;;;7392843;19;887;-62
2024/01/24 04:32:44;;;;;;;;;;;18.50;51.60;;;;;;7399344;19;788;-62
2024/01/24 04:35:10;;;;;;;;;;;18.50;51.60;;;;;;7396940;19;1513;-62
2024/01/24 04:37:35;;;;;;;;;;;18.60;51.50;;;;;;7393873;19;1112;-62
2024/01/24 04:40:00;;;;;;;;;;;18.60;51.40;;;;;;7396444;19;2088;-62
2024/01/24 04:42:26;;;;;;;;;;;18.60;51.30;;;;;;7392009;19;958;-62
2024/01/24 04:44:51;;;;;;;;;;;18.60;51.50;;;;;;7392804;19;1841;-62
2024/01/24 04:47:17;;;;;;;;;;;18.60;51.60;;;;;;7392826;19;1264;-62
2024/01/24 04:49:42;;;;;;;;;;;18.50;51.60;;;;;;7392423;19;1499;-62
2024/01/24 04:52:08;;;;;;;;;;;18.50;51.70;;;;;;7395450;19;1504;-63
2024/01/24 04:54:36;;;;;;;;;;;18.50;51.70;;;;;;7395138;19;2438;-62
2024/01/24 04:57:02;;;;;;;;;;;18.50;51.60;;;;;;7391842;19;983;-63
2024/01/24 04:59:28;;;;;;;;;;;18.60;51.60;;;;;;7393531;19;886;-62
2024/01/24 05:01:54;;;;;;;;;;;18.60;51.50;;;;;;7394497;19;3327;-62
2024/01/24 05:04:19;;;;;;;;;;;18.60;51.50;;;;;;7392119;19;1895;-62
2024/01/24 05:06:45;;;;;;;;;;;18.60;51.50;;;;;;7397225;19;1594;-62
2024/01/24 05:09:10;;;;;;;;;;;18.60;51.40;;;;;;7394073;19;1699;-62
2024/01/24 05:11:35;;;;;;;;;;;18.70;51.30;;;;;;7388429;19;1305;-62
2024/01/24 05:14:01;;;;;;;;;;;18.70;51.40;;;;;;7394050;19;1594;-62
2024/01/24 05:16:28;;;;;;;;;;;18.60;51.30;;;;;;7391735;19;1011;-62
2024/01/24 05:18:54;;;;;;;;;;;18.70;51.40;;;;;;7392326;19;1767;-62
2024/01/24 05:21:19;;;;;;;;;;;18.70;51.20;;;;;;7392741;19;882;-62
2024/01/24 05:23:45;;;;;;;;;;;18.80;51.20;;;;;;7396862;19;2135;-62
2024/01/24 05:26:11;;;;;;;;;;;18.80;51.10;;;;;;7397221;19;1625;-62
2024/01/24 05:28:36;;;;;;;;;;;18.80;51.00;;;;;;7391011;19;874;-62
2024/01/24 05:31:02;;;;;;;;;;;18.90;50.80;;;;;;7394589;19;805;-62
2024/01/24 05:33:28;;;;;;;;;;;18.90;50.80;;;;;;7395840;19;1511;-62
2024/01/24 05:35:53;;;;;;;;;;;18.90;51.00;;;;;;7391059;19;1426;-62
2024/01/24 05:38:19;;;;;;;;;;;18.90;50.90;;;;;;7394735;19;1721;-62
2024/01/24 05:40:44;;;;;;;;;;;18.90;50.80;;;;;;7392478;19;1649;-62
2024/01/24 05:43:10;;;;;;;;;;;18.80;50.90;;;;;;7388745;19;1513;-62
2024/01/24 05:45:35;;;;;;;;;;;18.70;51.10;;;;;;7386450;19;1853;-62
2024/01/24 05:48:00;;;;;;;;;;;18.70;51.10;;;;;;7386873;19;975;-63
2024/01/24 05:50:26;;;;;;;;;;;18.80;51.20;;;;;;7387744;19;1671;-62
2024/01/24 05:52:52;;;;;;;;;;;18.80;51.10;;;;;;7391927;19;1503;-62
2024/01/24 05:55:17;;;;;;;;;;;18.70;51.10;;;;;;7391863;19;1754;-62
2024/01/24 05:57:43;;;;;;;;;;;18.70;51.10;;;;;;7390048;19;1473;-62
2024/01/24 06:00:09;;;;;;;;;;;18.70;51.20;;;;;;7390845;19;1649;-63
2024/01/24 06:02:36;;;;;;;;;;;18.60;51.30;;;;;;7395054;19;1642;-63
2024/01/24 06:05:01;;;;;;;;;;;18.60;51.40;;;;;;7388538;19;1857;-62
2024/01/24 06:07:26;;;;;;;;;;;18.60;51.50;;;;;;7392666;19;1633;-62
2024/01/24 06:09:52;;;;;;;;;;;18.70;51.50;;;;;;7393947;19;1534;-62
2024/01/24 06:12:17;;;;;;;;;;;18.80;51.20;;;;;;7390283;19;1550;-62
2024/01/24 06:14:43;;;;;;;;;;;18.70;51.20;;;;;;7391887;19;1633;-62
2024/01/24 06:17:08;;;;;;;;;;;18.70;51.20;;;;;;7388713;19;1688;-62
2024/01/24 06:19:33;;;;;;;;;;;18.70;51.30;;;;;;7389677;19;1479;-62
2024/01/24 06:21:59;;;;;;;;;;;18.60;51.30;;;;;;7394917;19;1549;-62
2024/01/24 06:24:24;;;;;;;;;;;18.70;51.30;;;;;;7401133;19;1853;-62
2024/01/24 06:26:50;;;;;;;;;;;18.80;51.10;;;;;;7398667;19;998;-62
2024/01/24 06:29:15;;;;;;;;;;;18.80;51.00;;;;;;7399309;19;1758;-62
2024/01/24 06:31:40;;;;;;;;;;;18.90;50.90;;;;;;7399399;19;1747;-63
2024/01/24 06:34:06;;;;;;;;;;;18.90;50.90;;;;;;7398061;19;1759;-63
2024/01/24 06:36:31;;;;;;;;;;;19.00;50.80;;;;;;7401048;19;1663;-62
2024/01/24 06:38:57;;;;;;;;;;;19.00;50.60;;;;;;7399331;19;1510;-62
2024/01/24 06:41:22;;;;;;;;;;;19.00;50.70;;;;;;7399443;19;1442;-62
2024/01/24 06:43:47;;;;;;;;;;;19.00;50.50;;;;;;7398591;19;1866;-62
2024/01/24 06:46:13;;;;;;;;;;;19.00;50.50;;;;;;7398296;19;1633;-62
2024/01/24 06:48:39;;;;;;;;;;;19.10;50.50;;;;;;7402454;19;1437;-62
2024/01/24 06:51:04;;;;;;;;;;;19.00;50.30;;;;;;7397729;19;835;-62
2024/01/24 06:53:30;;;;;;;;;;;19.00;50.40;;;;;;7400914;19;1682;-63
2024/01/24 06:55:56;;;;;;;;;;;19.00;50.40;;;;;;7398735;19;1530;-63
2024/01/24 06:58:21;;;;;;;;;;;19.10;50.40;;;;;;7397694;19;1553;-63
2024/01/24 07:00:47;;;;;;;;;;;19.00;50.40;;;;;;7399312;19;1493;-63
2024/01/24 07:03:13;;;;;;;;;;;19.10;50.40;;;;;;7396532;19;3702;-63
2024/01/24 07:05:39;;;;;;;;;;;19.20;50.10;;;;;;7393276;19;1924;-62
2024/01/24 07:08:04;;;;;;;;;;;19.20;50.10;;;;;;7398597;19;1420;-63
2024/01/24 07:10:30;;;;;;;;;;;19.20;50.10;;;;;;7397826;19;1656;-62
2024/01/24 07:12:56;;;;;;;;;;;19.30;50.00;;;;;;7399148;19;1779;-62
2024/01/24 07:15:21;;;;;;;;;;;19.30;50.00;;;;;;7396245;19;1108;-62
2024/01/24 07:17:47;;;;;;;;;;;19.30;50.00;;;;;;7396912;19;1119;-62
2024/01/24 07:20:13;;;;;;;;;;;19.20;49.90;;;;;;7396835;19;1854;-62
2024/01/24 07:22:41;;;;;;;;;;;19.20;50.10;;;;;;7397807;19;1670;-62
2024/01/24 07:25:07;;;;;;;;;;;19.20;50.10;;;;;;7393924;19;1853;-62
2024/01/24 07:27:33;;;;;;;;;;;19.20;50.20;;;;;;7396352;19;907;-63
2024/01/24 07:29:58;;;;;;;;;;;19.20;50.20;;;;;;7399540;19;1469;-62
2024/01/24 07:32:24;;;;;;;;;;;19.20;50.20;;;;;;7398653;19;1421;-62
2024/01/24 07:34:49;;;;;;;;;;;19.20;50.40;;;;;;7395054;19;1547;-62
2024/01/24 07:37:15;;;;;;;;;;;19.20;50.30;;;;;;7395079;19;1506;-62
2024/01/24 07:39:41;;;;;;;;;;;19.20;50.40;;;;;;7395594;19;1562;-63
2024/01/24 07:42:06;;;;;;;;;;;19.10;50.40;;;;;;7398431;19;1608;-62
2024/01/24 07:44:31;;;;;;;;;;;19.20;50.30;;;;;;7397330;19;1854;-62
2024/01/24 07:46:57;;;;;;;;;;;19.20;50.40;;;;;;7396500;19;1246;-62
2024/01/24 07:49:23;;;;;;;;;;;19.20;50.40;;;;;;7394029;19;1014;-63
2024/01/24 07:51:51;;;;;;;;;;;19.20;50.30;;;;;;7396879;19;1657;-62
2024/01/24 07:54:19;;;;;;;;;;;19.20;50.60;;;;;;7399755;19;1836;-62
2024/01/24 07:56:45;;;;;;;;;;;19.10;50.60;;;;;;7393579;19;935;-63
2024/01/24 07:59:13;;;;;;;;;;;19.20;50.80;;;;;;7393861;19;1201;-63
2024/01/24 08:01:38;;;;;;;;;;;19.20;50.60;;;;;;7396968;19;1571;-63
2024/01/24 08:04:04;;;;;;;;;;;19.20;50.60;;;;;;7394675;19;2853;-63
2024/01/24 08:06:29;;;;;;;;;;;19.30;50.50;;;;;;7396793;19;1447;-62
2024/01/24 08:08:55;;;;;;;;;;;19.20;50.40;;;;;;7398813;19;1558;-63
2024/01/24 08:11:22;;;;;;;;;;;19.30;50.50;;;;;;7398496;19;1795;-62
2024/01/24 08:13:48;;;;;;;;;;;19.30;50.30;;;;;;7397177;19;1700;-63
2024/01/24 08:16:14;;;;;;;;;;;19.40;50.30;;;;;;7394085;19;1691;-63
2024/01/24 08:18:40;;;;;;;;;;;19.40;50.20;;;;;;7393802;19;2427;-62
2024/01/24 08:21:05;;;;;;;;;;;19.30;50.50;;;;;;7394663;19;2221;-63
2024/01/24 08:23:31;;;;;;;;;;;19.50;50.40;;;;;;7396125;19;1690;-63
2024/01/24 08:25:57;;;;;;;;;;;20.10;49.50;;;;;;7395870;19;2701;-63
2024/01/24 08:28:22;;;;;;;;;;;20.60;48.50;;;;;;7395621;19;1658;-62
2024/01/24 08:30:47;;;;;;;;;;;20.90;47.80;;;;;;7396176;19;1542;-63
2024/01/24 08:33:13;;;;;;;;;;;21.10;47.40;;;;;;7394762;19;1608;-63
2024/01/24 08:35:39;;;;;;;;;;;21.30;47.00;;;;;;7392840;19;1660;-63
2024/01/24 08:38:05;;;;;;;;;;;21.40;46.80;;;;;;7395041;19;2670;-63
2024/01/24 08:40:30;;;;;;;;;;;21.50;46.70;;;;;;7396923;19;1535;-62
2024/01/24 08:42:56;;;;;;;;;;;21.50;46.60;;;;;;7397069;19;1484;-62
2024/01/24 08:45:21;;;;;;;;;;;21.50;46.50;;;;;;7387357;19;1865;-62
2024/01/24 08:47:47;;;;;;;;;;;21.60;46.40;;;;;;7395488;19;1659;-62
2024/01/24 08:50:12;;;;;;;;;;;21.60;46.40;;;;;;7394442;19;1617;-62
2024/01/24 08:52:38;;;;;;;;;;;21.70;46.20;;;;;;7396222;19;1984;-63
2024/01/24 08:55:06;;;;;;;;;;;21.70;46.20;;;;;;7396899;19;1671;-62
2024/01/24 08:57:31;;;;;;;;;;;21.70;46.10;;;;;;7392015;19;1614;-62
2024/01/24 08:59:57;;;;;;;;;;;21.70;46.10;;;;;;7396479;19;1651;-62
2024/01/24 09:02:22;;;;;;;;;;;21.70;46.10;;;;;;7396255;19;1637;-63
2024/01/24 09:04:50;;;;;;;;;;;21.60;46.30;;;;;;7391429;19;2521;-63
2024/01/24 09:07:15;;;;;;;;;;;21.40;46.50;;;;;;7391990;19;1768;-64
2024/01/24 09:09:41;;;;;;;;;;;21.40;46.60;;;;;;7395441;19;1692;-62
2024/01/24 09:12:06;;;;;;;;;;;21.30;46.70;;;;;;7392138;19;2534;-62
2024/01/24 09:14:32;;;;;;;;;;;21.20;46.80;;;;;;7395355;19;1678;-62
2024/01/24 09:16:57;;;;;;;;;;;21.10;46.90;;;;;;7395240;19;1829;-63
2024/01/24 09:19:23;;;;;;;;;;;21.00;47.20;;;;;;7394306;19;1313;-63
2024/01/24 09:21:48;;;;;;;;;;;21.00;47.30;;;;;;7395891;19;2124;-62
2024/01/24 09:24:14;;;;;;;;;;;20.90;47.30;;;;;;7394522;19;1891;-63
2024/01/24 09:26:39;;;;;;;;;;;20.90;47.40;;;;;;7390171;19;2642;-63
2024/01/24 09:29:05;;;;;;;;;;;20.80;47.50;;;;;;7388832;19;3005;-63
2024/01/24 09:31:31;;;;;;;;;;;20.80;47.50;;;;;;7391290;19;3167;-62
2024/01/24 09:33:56;;;;;;;;;;;20.80;47.60;;;;;;7395428;19;1608;-62
2024/01/24 09:36:23;;;;;;;;;;;20.80;47.70;;;;;;7393364;19;2571;-62
2024/01/24 09:38:48;;;;;;;;;;;20.80;47.50;;;;;;7391848;19;1862;-62
2024/01/24 09:41:17;;;;;;;;;;;20.90;47.40;;;;;;7394275;19;1691;-62
2024/01/24 09:43:43;;;;;;;;;;;21.00;47.40;;;;;;7393317;19;1845;-62
2024/01/24 09:46:09;;;;;;;;;;;21.00;47.30;;;;;;7392131;19;1560;-62
2024/01/24 09:48:34;;;;;;;;;;;21.10;47.20;;;;;;7393293;19;2540;-62
2024/01/24 09:51:00;;;;;;;;;;;21.10;47.10;;;;;;7390472;19;1613;-62
2024/01/24 09:53:25;;;;;;;;;;;21.20;47.10;;;;;;7393853;19;1563;-62
2024/01/24 09:55:50;;;;;;;;;;;21.10;47.00;;;;;;7392948;19;1737;-62
2024/01/24 09:58:16;;;;;;;;;;;21.10;47.10;;;;;;7399654;19;1950;-62
2024/01/24 10:00:42;;;;;;;;;;;21.10;47.00;;;;;;7401645;19;1765;-62
2024/01/24 10:03:08;;;;;;;;;;;21.10;47.00;;;;;;7399213;19;1512;-62
2024/01/24 10:05:33;;;;;;;;;;;21.10;47.10;;;;;;7394461;19;3541;-63
2024/01/24 10:07:58;;;;;;;;;;;21.10;47.20;;;;;;7400278;19;1659;-63
2024/01/24 10:10:25;;;;;;;;;;;21.10;47.10;;;;;;7402085;19;1579;-64
2024/01/24 10:12:51;;;;;;;;;;;21.10;47.20;;;;;;7396948;19;2573;-62
2024/01/24 10:15:16;;;;;;;;;;;21.00;47.10;;;;;;7395554;19;1465;-62
2024/01/24 10:17:42;;;;;;;;;;;21.00;47.10;;;;;;7398777;19;1804;-63
2024/01/24 10:20:11;;;;;;;;;;;21.00;47.10;;;;;;7394190;19;1539;-62
2024/01/24 10:22:37;;;;;;;;;;;21.00;47.10;;;;;;7397313;19;1848;-63
2024/01/24 10:25:03;;;;;;;;;;;21.00;47.10;;;;;;7394885;19;1888;-63
2024/01/24 10:27:28;;;;;;;;;;;21.00;47.20;;;;;;7396108;19;1445;-63
2024/01/24 10:29:54;;;;;;;;;;;21.00;47.10;;;;;;7400647;19;1789;-62
2024/01/24 10:32:20;;;;;;;;;;;21.00;47.10;;;;;;7400526;19;1725;-62
2024/01/24 10:34:45;;;;;;;;;;;21.00;47.00;;;;;;7398621;19;1702;-61
2024/01/24 10:37:11;;;;;;;;;;;21.10;47.00;;;;;;7399163;19;1661;-62
2024/01/24 10:39:36;;;;;;;;;;;21.00;47.00;;;;;;7399044;19;2648;-62
2024/01/24 10:42:02;;;;;;;;;;;21.10;47.00;;;;;;7397770;19;3208;-63
2024/01/24 10:44:29;;;;;;;;;;;21.10;47.00;;;;;;7398870;19;2254;-62
2024/01/24 10:46:55;;;;;;;;;;;21.10;46.90;;;;;;7397828;19;1628;-62
2024/01/24 10:49:21;;;;;;;;;;;21.10;46.90;;;;;;7398749;19;1882;-63
2024/01/24 10:51:46;;;;;;;;;;;21.10;46.80;;;;;;7397479;19;1799;-62
2024/01/24 10:54:13;;;;;;;;;;;21.10;46.80;;;;;;7397886;19;1849;-62
2024/01/24 10:56:39;;;;;;;;;;;21.10;46.90;;;;;;7399759;19;1562;-63
2024/01/24 10:59:04;;;;;;;;;;;21.10;46.90;;;;;;7401618;19;2165;-62
2024/01/24 11:01:30;;;;;;;;;;;21.10;46.90;;;;;;7399115;19;1519;-62
2024/01/24 11:03:55;;;;;;;;;;;21.10;47.00;;;;;;7400395;19;1858;-61
2024/01/24 11:06:21;;;;;;;;;;;21.10;46.90;;;;;;7396050;19;3222;-62
2024/01/24 11:08:55;;;;;;;;;;;21.10;46.90;;;;;;7392091;19;1958;-62
2024/01/24 11:11:21;;;;;;;;;;;21.10;47.10;;;;;;7395768;19;1863;-62
2024/01/24 11:13:46;;;;;;;;;;;21.10;47.00;;;;;;7397506;19;1599;-63
2024/01/24 11:16:30;;;;;;;;;;;21.10;47.00;;;;;;7397954;19;1827;-62
2024/01/24 11:18:59;;;;;;;;;;;21.10;47.00;;;;;;7399918;19;1740;-62
2024/01/24 11:21:28;;;;;;;;;;;21.10;47.00;;;;;;7396538;19;1704;-63
2024/01/24 11:23:54;;;;;;;;;;;21.10;46.90;;;;;;7397013;19;1845;-63
2024/01/24 11:26:19;;;;;;;;;;;21.10;46.90;;;;;;7399200;19;1625;-62
2024/01/24 11:28:45;;;;;;;;;;;21.10;46.90;;;;;;7397533;19;1290;-62
2024/01/24 11:31:11;;;;;;;;;;;21.10;46.90;;;;;;7397412;19;1603;-63
2024/01/24 11:33:36;;;;;;;;;;;21.10;46.90;;;;;;7397738;19;1670;-62
2024/01/24 11:36:02;;;;;;;;;;;21.10;46.90;;;;;;7395389;19;1766;-62
2024/01/24 11:38:28;;;;;;;;;;;21.10;46.90;;;;;;7394462;19;1614;-62
2024/01/24 11:41:00;;;;;;;;;;;21.10;46.80;;;;;;7398915;19;1716;-62
2024/01/24 11:43:32;;;;;;;;;;;21.20;46.80;;;;;;7395791;19;1683;-62
2024/01/24 11:46:04;;;;;;;;;;;21.10;46.70;;;;;;7396082;19;1857;-62
2024/01/24 11:48:31;;;;;;;;;;;21.10;46.80;;;;;;7396455;19;1630;-62
2024/01/24 11:50:57;;;;;;;;;;;21.10;46.80;;;;;;7396242;19;1555;-62
2024/01/24 11:53:22;;;;;;;;;;;21.10;46.80;;;;;;7399751;19;1658;-62
2024/01/24 11:55:52;;;;;;;;;;;21.20;46.80;;;;;;7398307;19;1528;-62
2024/01/24 11:58:17;;;;;;;;;;;21.20;46.80;;;;;;7396519;19;1526;-62
2024/01/24 12:00:43;;;;;;;;;;;21.10;46.70;;;;;;7397563;19;1633;-63
2024/01/24 12:03:10;;;;;;;;;;;21.10;46.70;;;;;;7400516;19;1206;-63
2024/01/24 12:05:36;;;;;;;;;;;21.10;46.70;;;;;;7395765;19;1814;-63
2024/01/24 12:08:01;;;;;;;;;;;21.10;46.70;;;;;;7395852;19;3851;-63
2024/01/24 12:10:27;;;;;;;;;;;21.10;46.80;;;;;;7396155;19;2120;-62
2024/01/24 12:12:52;;;;;;;;;;;21.10;46.70;;;;;;7393034;19;3953;-63
2024/01/24 12:15:18;;;;;;;;;;;21.10;46.90;;;;;;7393772;19;3411;-63
2024/01/24 12:17:43;;;;;;;;;;;21.10;46.90;;;;;;7398407;19;1567;-62
2024/01/24 12:20:13;;;;;;;;;;;21.10;46.90;;;;;;7394757;19;1556;-62
2024/01/24 12:22:39;;;;;;;;;;;21.10;46.90;;;;;;7395916;19;1504;-62
2024/01/24 12:25:07;;;;;;;;;;;21.10;46.80;;;;;;7394567;19;1855;-62
2024/01/24 12:27:32;;;;;;;;;;;21.10;46.80;;;;;;7395864;19;1692;-63
2024/01/24 12:29:58;;;;;;;;;;;21.10;46.80;;;;;;7398931;19;1514;-63
2024/01/24 12:32:23;;;;;;;;;;;21.20;46.80;;;;;;7395917;19;1641;-62
2024/01/24 12:34:49;;;;;;;;;;;21.20;46.70;;;;;;7395300;19;1563;-62
2024/01/24 12:37:14;;;;;;;;;;;21.20;46.70;;;;;;7397270;19;1565;-62
2024/01/24 12:39:40;;;;;;;;;;;21.20;46.80;;;;;;7397975;19;1502;-62
2024/01/24 12:42:05;;;;;;;;;;;21.20;46.60;;;;;;7395008;19;2285;-62
2024/01/24 12:44:31;;;;;;;;;;;21.30;46.50;;;;;;7393735;19;1849;-62
2024/01/24 12:46:56;;;;;;;;;;;21.30;46.50;;;;;;7394387;19;1573;-63
2024/01/24 12:49:22;;;;;;;;;;;21.30;46.50;;;;;;7394734;19;1555;-62
2024/01/24 12:51:48;;;;;;;;;;;21.20;46.50;;;;;;7395332;19;1588;-62
2024/01/24 12:54:13;;;;;;;;;;;21.20;46.60;;;;;;7394838;19;1741;-62
2024/01/24 12:56:39;;;;;;;;;;;21.20;46.50;;;;;;7394559;19;1087;-63
2024/01/24 12:59:04;;;;;;;;;;;21.20;46.70;;;;;;7393278;19;1590;-63
2024/01/24 13:01:30;;;;;;;;;;;21.20;46.70;;;;;;7395917;19;3037;-62
2024/01/24 13:03:55;;;;;;;;;;;21.10;46.70;;;;;;7397208;19;1842;-62
2024/01/24 13:06:21;;;;;;;;;;;21.10;46.80;;;;;;7392410;19;2560;-62
2024/01/24 13:08:46;;;;;;;;;;;21.10;46.80;;;;;;7392736;19;2647;-62
2024/01/24 13:11:11;;;;;;;;;;;21.10;46.90;;;;;;7395274;19;1590;-62
2024/01/24 13:13:37;;;;;;;;;;;21.10;46.90;;;;;;7393025;19;1655;-63
2024/01/24 13:16:02;;;;;;;;;;;21.10;46.90;;;;;;7395292;19;1884;-62
2024/01/24 13:18:28;;;;;;;;;;;21.10;46.80;;;;;;7389186;19;2551;-62
2024/01/24 13:20:54;;;;;;;;;;;21.20;46.70;;;;;;7394388;19;1495;-62
2024/01/24 13:23:19;;;;;;;;;;;21.20;46.70;;;;;;7395405;19;1413;-62
2024/01/24 13:25:45;;;;;;;;;;;21.20;46.60;;;;;;7390816;19;1850;-62
2024/01/24 13:28:10;;;;;;;;;;;21.20;46.60;;;;;;7393224;19;843;-62
2024/01/24 13:30:35;;;;;;;;;;;21.20;46.50;;;;;;7393652;19;2037;-62
2024/01/24 13:33:01;;;;;;;;;;;21.30;46.50;;;;;;7403008;19;1757;-62
2024/01/24 13:35:26;;;;;;;;;;;21.30;46.40;;;;;;7402562;19;1418;-62
2024/01/24 13:37:52;;;;;;;;;;;21.30;46.40;;;;;;7398798;19;1015;-63
2024/01/24 13:40:17;;;;;;;;;;;21.30;46.40;;;;;;7403321;19;1437;-62
2024/01/24 13:42:43;;;;;;;;;;;21.30;46.40;;;;;;7399395;19;1604;-62
2024/01/24 13:45:08;;;;;;;;;;;21.30;46.40;;;;;;7397347;19;2731;-63
2024/01/24 13:47:34;;;;;;;;;;;21.20;46.40;;;;;;7397667;19;2798;-63
2024/01/24 13:49:59;;;;;;;;;;;21.30;46.40;;;;;;7391789;19;2772;-63
2024/01/24 13:52:25;;;;;;;;;;;21.30;46.50;;;;;;7398196;19;3050;-63
2024/01/24 13:54:50;;;;;;;;;;;21.30;46.60;;;;;;7393161;19;2688;-63
2024/01/24 13:57:16;;;;;;;;;;;21.30;46.60;;;;;;7394188;19;3269;-64
2024/01/24 13:59:41;;;;;;;;;;;21.30;46.60;;;;;;7399715;19;2346;-63
2024/01/24 14:02:07;;;;;;;;;;;21.20;46.60;;;;;;7399661;19;2259;-62
2024/01/24 14:04:32;;;;;;;;;;;21.20;46.60;;;;;;7400412;19;2461;-62
2024/01/24 14:06:57;;;;;;;;;;;21.30;46.70;;;;;;7399994;19;2424;-62
2024/01/24 14:09:23;;;;;;;;;;;21.20;46.70;;;;;;7396662;19;2552;-63
2024/01/24 14:11:48;;;;;;;;;;;21.20;46.70;;;;;;7396339;19;2358;-63
2024/01/24 14:14:14;;;;;;;;;;;21.20;46.80;;;;;;7399431;19;2230;-62
2024/01/24 14:16:39;;;;;;;;;;;21.20;46.80;;;;;;7400467;19;2529;-62
2024/01/24 14:19:04;;;;;;;;;;;21.20;46.80;;;;;;7394587;19;1588;-63
2024/01/24 14:21:31;;;;;;;;;;;21.20;46.80;;;;;;7398118;19;2035;-62